createdAt,value
2019-03-11T00:01:22.961Z,15.83
2019-03-11T00:03:52.613Z,17.20
2019-03-11T00:06:22.244Z,17.67
2019-03-11T00:08:51.949Z,17.97
2019-03-11T00:11:21.573Z,24.47
2019-03-11T00:13:51.206Z,23.67
2019-03-11T00:16:20.798Z,21.33
2019-03-11T00:18:50.369Z,19.47
2019-03-11T00:21:19.950Z,18.80
2019-03-11T00:23:49.580Z,17.57
2019-03-11T00:26:19.249Z,17.60
2019-03-11T00:28:48.880Z,17.07
2019-03-11T00:31:18.481Z,15.63
2019-03-11T00:33:48.089Z,16.30
2019-03-11T00:36:17.720Z,17.30
2019-03-11T00:38:47.343Z,16.57
2019-03-11T00:41:16.916Z,15.87
2019-03-11T00:43:46.481Z,15.73
2019-03-11T00:46:16.097Z,10.80
2019-03-11T00:48:45.778Z,14.70
2019-03-11T00:51:15.377Z,10.43
2019-03-11T00:53:44.951Z,12.13
2019-03-11T00:56:14.601Z,15.33
2019-03-11T00:58:44.207Z,16.47
2019-03-11T01:01:13.837Z,17.37
2019-03-11T01:03:43.475Z,25.00
2019-03-11T01:06:13.048Z,24.83
2019-03-11T01:08:42.633Z,24.07
2019-03-11T01:11:12.322Z,23.87
2019-03-11T01:13:41.918Z,22.73
2019-03-11T01:16:11.543Z,24.50
2019-03-11T01:18:41.115Z,25.47
2019-03-11T01:21:10.781Z,23.00
2019-03-11T01:23:40.421Z,24.23
2019-03-11T01:26:10.007Z,22.17
2019-03-11T01:28:39.711Z,21.17
2019-03-11T01:31:09.295Z,18.70
2019-03-11T01:33:38.889Z,18.07
2019-03-11T01:36:08.466Z,15.40
2019-03-11T01:38:38.044Z,13.80
2019-03-11T01:41:07.659Z,11.77
2019-03-11T01:43:37.240Z,9.97
2019-03-11T01:46:06.853Z,6.90
2019-03-11T01:48:36.445Z,4.97
2019-03-11T01:51:06.056Z,11.93
2019-03-11T01:53:35.759Z,19.87
2019-03-11T01:56:05.375Z,20.03
2019-03-11T01:58:34.974Z,20.63
2019-03-11T02:01:04.877Z,19.37
2019-03-11T02:03:34.497Z,20.27
2019-03-11T02:06:04.147Z,22.90
2019-03-11T02:08:33.741Z,21.90
2019-03-11T02:11:03.390Z,23.00
2019-03-11T02:13:33.000Z,21.57
2019-03-11T02:16:02.650Z,19.40
2019-03-11T02:18:32.291Z,19.50
2019-03-11T02:21:01.874Z,17.23
2019-03-11T02:23:31.561Z,15.17
2019-03-11T02:26:01.240Z,14.20
2019-03-11T02:28:30.890Z,12.70
2019-03-11T02:31:00.529Z,11.77
2019-03-11T02:33:30.148Z,10.67
2019-03-11T02:35:59.761Z,9.57
2019-03-11T02:38:29.348Z,8.63
2019-03-11T02:40:59.024Z,8.10
2019-03-11T02:43:28.639Z,7.13
2019-03-11T02:45:58.229Z,7.47
2019-03-11T02:48:27.842Z,7.43
2019-03-11T02:50:57.453Z,6.93
2019-03-11T02:53:27.039Z,6.10
2019-03-11T02:55:56.677Z,6.17
2019-03-11T02:58:26.237Z,5.77
2019-03-11T03:01:15.374Z,5.90
2019-03-11T03:03:50.493Z,5.40
2019-03-11T03:06:20.140Z,5.63
2019-03-11T03:08:49.704Z,5.47
2019-03-11T03:11:19.306Z,4.80
2019-03-11T03:13:48.905Z,5.03
2019-03-11T03:16:18.506Z,4.90
2019-03-11T03:18:48.138Z,4.50
2019-03-11T03:21:17.701Z,4.60
2019-03-11T03:23:47.269Z,4.77
2019-03-11T03:26:16.892Z,4.60
2019-03-11T03:28:46.483Z,4.30
2019-03-11T03:31:16.121Z,4.60
2019-03-11T03:33:45.741Z,4.57
2019-03-11T03:36:15.348Z,4.77
2019-03-11T03:38:44.949Z,4.70
2019-03-11T03:41:14.486Z,4.50
2019-03-11T03:43:44.158Z,4.43
2019-03-11T03:46:19.356Z,4.40
2019-03-11T03:48:45.354Z,3.83
2019-03-11T03:51:15.012Z,4.57
2019-03-11T03:53:44.628Z,4.00
2019-03-11T03:56:14.268Z,4.40
2019-03-11T03:58:43.881Z,4.33
2019-03-11T04:01:13.469Z,4.23
2019-03-11T04:03:43.094Z,4.27
2019-03-11T04:06:12.684Z,4.30
2019-03-11T04:08:42.321Z,5.00
2019-03-11T04:11:11.929Z,4.37
2019-03-11T04:13:41.502Z,6.10
2019-03-11T04:16:11.194Z,4.50
2019-03-11T04:18:54.693Z,4.50
2019-03-11T04:21:24.437Z,3.90
2019-03-11T04:23:53.988Z,4.10
2019-03-11T04:26:32.382Z,4.37
2019-03-11T04:29:02.112Z,3.93
2019-03-11T04:31:31.728Z,3.80
2019-03-11T04:34:01.326Z,4.30
2019-03-11T04:36:30.931Z,4.30
2019-03-11T04:39:00.566Z,3.70
2019-03-11T04:41:30.189Z,5.53
2019-03-11T04:43:59.775Z,4.00
2019-03-11T04:46:29.418Z,3.67
2019-03-11T04:48:58.983Z,4.00
2019-03-11T04:51:28.620Z,4.07
2019-03-11T04:53:58.213Z,4.27
2019-03-11T04:56:27.807Z,3.90
2019-03-11T04:59:10.165Z,3.50
2019-03-11T05:01:39.752Z,5.30
2019-03-11T05:04:09.382Z,3.60
2019-03-11T05:06:39.030Z,4.03
2019-03-11T05:09:08.817Z,3.87
2019-03-11T05:11:38.446Z,4.10
2019-03-11T05:14:08.010Z,4.10
2019-03-11T05:16:37.633Z,4.10
2019-03-11T05:19:07.215Z,4.20
2019-03-11T05:21:36.838Z,4.27
2019-03-11T05:24:06.440Z,4.47
2019-03-11T05:26:36.069Z,4.10
2019-03-11T05:29:05.716Z,4.50
2019-03-11T05:31:35.303Z,4.20
2019-03-11T05:34:05.078Z,3.97
2019-03-11T05:36:34.674Z,4.77
2019-03-11T05:39:05.137Z,4.83
2019-03-11T05:41:34.772Z,4.00
2019-03-11T05:44:04.530Z,4.20
2019-03-11T05:46:34.151Z,3.77
2019-03-11T05:49:03.776Z,3.73
2019-03-11T05:51:33.347Z,4.50
2019-03-11T05:54:02.946Z,4.53
2019-03-11T05:56:32.536Z,4.67
2019-03-11T05:59:02.137Z,4.53
2019-03-11T06:01:31.712Z,4.37
2019-03-11T06:04:01.279Z,5.43
2019-03-11T06:06:30.985Z,5.03
2019-03-11T06:09:00.583Z,3.83
2019-03-11T06:11:30.168Z,4.07
2019-03-11T06:13:59.741Z,4.50
2019-03-11T06:16:29.351Z,4.63
2019-03-11T06:18:58.990Z,5.20
2019-03-11T06:21:56.416Z,4.37
2019-03-11T06:24:26.096Z,3.97
2019-03-11T06:26:55.660Z,3.77
2019-03-11T06:29:30.362Z,3.73
2019-03-11T06:31:56.586Z,3.87
2019-03-11T06:34:26.266Z,3.70
2019-03-11T06:36:55.974Z,4.40
2019-03-11T06:39:25.582Z,3.80
2019-03-11T06:41:55.191Z,4.33
2019-03-11T06:44:24.814Z,4.13
2019-03-11T06:46:54.392Z,4.17
2019-03-11T06:49:24.106Z,5.00
2019-03-11T06:51:53.763Z,7.13
2019-03-11T06:54:23.330Z,7.23
2019-03-11T06:56:52.915Z,5.97
2019-03-11T06:59:22.490Z,4.57
2019-03-11T07:01:52.169Z,4.13
2019-03-11T07:04:21.797Z,3.70
2019-03-11T07:06:51.358Z,3.10
2019-03-11T07:09:21.022Z,2.77
2019-03-11T07:11:50.736Z,2.73
2019-03-11T07:14:20.379Z,2.87
2019-03-11T07:16:49.952Z,2.97
2019-03-11T07:19:19.575Z,2.93
2019-03-11T07:21:49.173Z,2.73
2019-03-11T07:24:18.803Z,2.57
2019-03-11T07:26:48.455Z,2.70
2019-03-11T07:29:18.041Z,3.20
2019-03-11T07:31:47.626Z,2.63
2019-03-11T07:34:17.208Z,2.30
2019-03-11T07:36:46.809Z,2.50
2019-03-11T07:39:16.464Z,2.40
2019-03-11T07:41:46.066Z,2.83
2019-03-11T07:44:15.707Z,3.03
2019-03-11T07:46:45.737Z,3.30
2019-03-11T07:49:15.462Z,2.77
2019-03-11T07:51:45.103Z,2.20
2019-03-11T07:54:14.670Z,3.20
2019-03-11T07:56:44.239Z,3.13
2019-03-11T07:59:13.863Z,2.90
2019-03-11T08:01:43.490Z,2.67
2019-03-11T08:04:13.152Z,3.10
2019-03-11T08:06:42.740Z,3.00
2019-03-11T08:09:12.378Z,2.87
2019-03-11T08:11:41.959Z,3.53
2019-03-11T08:14:11.552Z,2.90
2019-03-11T08:16:41.222Z,2.77
2019-03-11T08:19:10.868Z,2.60
2019-03-11T08:21:40.444Z,3.90
2019-03-11T08:24:10.069Z,8.67
2019-03-11T08:26:39.691Z,11.27
2019-03-11T08:29:09.327Z,5.23
2019-03-11T08:31:38.938Z,3.50
2019-03-11T08:34:08.514Z,3.00
2019-03-11T08:36:38.102Z,2.93
2019-03-11T08:39:09.695Z,2.43
2019-03-11T08:41:39.302Z,3.37
2019-03-11T08:44:08.927Z,3.03
2019-03-11T08:46:38.581Z,2.80
2019-03-11T08:49:08.173Z,2.90
2019-03-11T08:51:37.760Z,2.87
2019-03-11T08:54:07.311Z,2.67
2019-03-11T08:56:36.918Z,2.63
2019-03-11T08:59:06.603Z,3.00
2019-03-11T09:01:36.188Z,2.80
2019-03-11T09:04:05.933Z,2.80
2019-03-11T09:06:35.523Z,2.63
2019-03-11T09:09:07.231Z,2.70
2019-03-11T09:11:36.869Z,2.40
2019-03-11T09:14:06.658Z,3.23
2019-03-11T09:16:36.244Z,2.40
2019-03-11T09:19:05.842Z,2.67
2019-03-11T09:21:35.557Z,2.83
2019-03-11T09:24:05.141Z,2.57
2019-03-11T09:26:34.747Z,2.50
2019-03-11T09:29:04.404Z,2.60
2019-03-11T09:31:33.999Z,2.63
2019-03-11T09:34:03.639Z,2.27
2019-03-11T09:36:33.337Z,2.63
2019-03-11T09:39:03.232Z,2.47
2019-03-11T09:41:32.795Z,2.40
2019-03-11T09:44:02.426Z,2.90
2019-03-11T09:46:32.035Z,2.60
2019-03-11T09:49:01.613Z,2.60
2019-03-11T09:51:31.170Z,2.43
2019-03-11T09:54:00.843Z,2.77
2019-03-11T09:56:30.490Z,2.90
2019-03-11T09:59:00.114Z,3.10
2019-03-11T10:01:29.793Z,2.60
2019-03-11T10:03:59.425Z,2.60
2019-03-11T10:06:29.112Z,2.37
2019-03-11T10:08:58.689Z,2.70
2019-03-11T10:11:28.384Z,2.47
2019-03-11T10:13:58.089Z,2.80
2019-03-11T10:16:27.798Z,2.37
2019-03-11T10:18:57.371Z,2.37
2019-03-11T10:21:26.967Z,2.57
2019-03-11T10:23:59.121Z,2.50
2019-03-11T10:26:27.978Z,2.53
2019-03-11T10:28:57.701Z,2.17
2019-03-11T10:31:27.275Z,2.57
2019-03-11T10:33:56.916Z,2.67
2019-03-11T10:36:26.493Z,2.20
2019-03-11T10:38:56.169Z,2.17
2019-03-11T10:41:25.787Z,2.10
2019-03-11T10:43:55.461Z,2.63
2019-03-11T10:46:25.144Z,2.30
2019-03-11T10:48:54.713Z,2.40
2019-03-11T10:51:24.354Z,2.40
2019-03-11T10:53:54.007Z,2.50
2019-03-11T10:56:23.556Z,1.90
2019-03-11T10:58:53.156Z,1.90
2019-03-11T11:01:23.135Z,2.10
2019-03-11T11:03:52.777Z,1.90
2019-03-11T11:06:22.359Z,2.00
2019-03-11T11:08:52.011Z,1.73
2019-03-11T11:11:21.651Z,2.67
2019-03-11T11:13:51.354Z,2.30
2019-03-11T11:16:20.928Z,2.57
2019-03-11T11:18:50.513Z,2.20
2019-03-11T11:21:20.130Z,2.23
2019-03-11T11:23:49.710Z,2.17
2019-03-11T11:26:19.333Z,2.20
2019-03-11T11:28:48.918Z,1.93
2019-03-11T11:31:18.486Z,1.90
2019-03-11T11:33:48.109Z,2.20
2019-03-11T11:36:17.704Z,2.10
2019-03-11T11:38:47.289Z,2.17
2019-03-11T11:41:16.882Z,2.33
2019-03-11T11:43:46.509Z,2.20
2019-03-11T11:46:16.127Z,2.07
2019-03-11T11:48:45.718Z,2.17
2019-03-11T11:51:15.352Z,2.50
2019-03-11T11:53:44.951Z,1.80
2019-03-11T11:56:14.584Z,2.30
2019-03-11T11:58:44.233Z,1.90
2019-03-11T12:01:13.827Z,2.23
2019-03-11T12:03:43.466Z,2.07
2019-03-11T12:06:13.038Z,1.97
2019-03-11T12:08:42.675Z,2.37
2019-03-11T12:11:12.364Z,2.30
2019-03-11T12:13:41.911Z,2.17
2019-03-11T12:16:11.523Z,2.20
2019-03-11T12:18:41.120Z,2.67
2019-03-11T12:21:10.731Z,2.30
2019-03-11T12:23:46.224Z,2.30
2019-03-11T12:26:11.656Z,2.00
2019-03-11T12:28:41.298Z,2.23
2019-03-11T12:31:10.905Z,2.20
2019-03-11T12:33:40.620Z,2.60
2019-03-11T12:36:10.237Z,2.30
2019-03-11T12:38:39.828Z,2.50
2019-03-11T12:41:09.495Z,2.50
2019-03-11T12:43:39.079Z,2.13
2019-03-11T12:46:08.676Z,2.27
2019-03-11T12:48:38.248Z,2.40
2019-03-11T12:51:07.843Z,2.40
2019-03-11T12:53:37.522Z,2.20
2019-03-11T12:56:07.183Z,2.47
2019-03-11T12:58:41.511Z,2.30
2019-03-11T13:01:08.153Z,2.27
2019-03-11T13:03:37.754Z,2.20
2019-03-11T13:06:07.498Z,2.50
2019-03-11T13:08:37.065Z,2.57
2019-03-11T13:11:06.653Z,2.33
2019-03-11T13:13:36.242Z,2.20
2019-03-11T13:16:05.925Z,2.43
2019-03-11T13:18:43.382Z,2.20
2019-03-11T13:21:16.609Z,2.70
2019-03-11T13:23:46.205Z,2.17
2019-03-11T13:26:15.823Z,2.60
2019-03-11T13:28:45.409Z,2.43
2019-03-11T13:31:15.064Z,2.50
2019-03-11T13:33:44.684Z,2.33
2019-03-11T13:36:14.295Z,2.43
2019-03-11T13:38:43.947Z,2.50
2019-03-11T13:41:13.548Z,2.93
2019-03-11T13:43:43.296Z,2.67
2019-03-11T13:46:12.915Z,3.10
2019-03-11T13:48:42.543Z,2.93
2019-03-11T13:51:12.113Z,2.60
2019-03-11T13:53:41.704Z,2.50
2019-03-11T13:56:11.367Z,2.63
2019-03-11T13:58:41.049Z,2.60
2019-03-11T14:01:10.780Z,2.50
2019-03-11T14:03:40.430Z,2.70
2019-03-11T14:06:10.078Z,2.57
2019-03-11T14:08:39.706Z,2.57
2019-03-11T14:11:09.431Z,2.60
2019-03-11T14:13:39.042Z,2.60
2019-03-11T14:16:08.626Z,2.93
2019-03-11T14:18:38.222Z,2.90
2019-03-11T14:21:07.941Z,2.60
2019-03-11T14:23:37.553Z,3.00
2019-03-11T14:26:07.131Z,2.50
2019-03-11T14:28:36.753Z,2.60
2019-03-11T14:31:06.464Z,3.00
2019-03-11T14:33:36.041Z,3.10
2019-03-11T14:36:05.644Z,2.80
2019-03-11T14:38:35.296Z,3.23
2019-03-11T14:41:04.977Z,3.00
2019-03-11T14:43:34.584Z,2.90
2019-03-11T14:46:04.258Z,3.07
2019-03-11T14:48:33.874Z,2.73
2019-03-11T14:51:03.665Z,2.87
2019-03-11T14:53:33.276Z,2.70
2019-03-11T14:56:02.852Z,2.47
2019-03-11T14:58:32.444Z,2.70
2019-03-11T15:01:02.029Z,2.97
2019-03-11T15:03:31.655Z,2.97
2019-03-11T15:06:01.239Z,3.10
2019-03-11T15:08:30.889Z,3.10
2019-03-11T15:11:00.479Z,3.17
2019-03-11T15:13:30.046Z,2.93
2019-03-11T15:15:59.657Z,3.10
2019-03-11T15:18:29.246Z,3.10
2019-03-11T15:20:58.877Z,3.67
2019-03-11T15:23:28.490Z,2.90
2019-03-11T15:25:58.091Z,2.70
2019-03-11T15:28:27.667Z,2.90
2019-03-11T15:30:57.266Z,3.00
2019-03-11T15:33:26.870Z,3.33
2019-03-11T15:35:56.478Z,3.07
2019-03-11T15:38:26.085Z,3.57
2019-03-11T15:40:55.710Z,3.63
2019-03-11T15:43:25.310Z,4.10
2019-03-11T15:45:55.229Z,3.77
2019-03-11T15:48:24.825Z,3.80
2019-03-11T15:50:54.529Z,3.40
2019-03-11T15:53:24.180Z,3.43
2019-03-11T15:55:53.779Z,3.67
2019-03-11T15:58:23.460Z,3.47
2019-03-11T16:00:53.175Z,3.13
2019-03-11T16:03:22.769Z,3.47
2019-03-11T16:05:52.339Z,3.40
2019-03-11T16:08:21.981Z,2.87
2019-03-11T16:10:51.701Z,2.73
2019-03-11T16:13:21.279Z,3.47
2019-03-11T16:15:50.909Z,3.37
2019-03-11T16:18:20.516Z,5.47
2019-03-11T16:20:50.105Z,6.90
2019-03-11T16:23:19.859Z,7.70
2019-03-11T16:25:49.540Z,6.77
2019-03-11T16:28:19.148Z,6.73
2019-03-11T16:30:48.740Z,8.20
2019-03-11T16:33:18.341Z,7.40
2019-03-11T16:35:47.990Z,6.73
2019-03-11T16:38:17.588Z,6.20
2019-03-11T16:40:47.162Z,5.80
2019-03-11T16:43:16.778Z,5.80
2019-03-11T16:45:46.462Z,4.30
2019-03-11T16:48:16.098Z,3.70
2019-03-11T16:50:45.676Z,3.30
2019-03-11T16:53:15.278Z,3.07
2019-03-11T16:55:45.608Z,3.23
2019-03-11T16:58:15.189Z,3.00
2019-03-11T17:00:45.170Z,3.13
2019-03-11T17:03:14.954Z,2.60
2019-03-11T17:05:44.632Z,2.80
2019-03-11T17:08:14.192Z,2.97
2019-03-11T17:10:43.824Z,2.57
2019-03-11T17:13:13.402Z,2.63
2019-03-11T17:15:43.040Z,2.70
2019-03-11T17:18:12.700Z,2.40
2019-03-11T17:20:42.314Z,2.70
2019-03-11T17:23:11.919Z,3.07
2019-03-11T17:25:41.519Z,2.80
2019-03-11T17:28:11.091Z,3.30
2019-03-11T17:30:40.680Z,3.20
2019-03-11T17:33:10.416Z,8.03
2019-03-11T17:35:40.034Z,8.87
2019-03-11T17:38:09.665Z,9.27
2019-03-11T17:40:39.281Z,5.17
2019-03-11T17:43:08.932Z,5.17
2019-03-11T17:45:38.480Z,4.87
2019-03-11T17:48:08.218Z,4.17
2019-03-11T17:50:37.792Z,4.17
2019-03-11T17:53:07.568Z,4.30
2019-03-11T17:55:37.212Z,4.80
2019-03-11T17:58:06.822Z,5.40
2019-03-11T18:00:36.812Z,4.17
2019-03-11T18:03:06.671Z,4.43
2019-03-11T18:05:36.268Z,4.00
2019-03-11T18:08:06.006Z,4.43
2019-03-11T18:10:35.601Z,3.93
2019-03-11T18:13:05.285Z,4.10
2019-03-11T18:15:34.895Z,4.90
2019-03-11T18:18:04.666Z,5.17
2019-03-11T18:20:34.291Z,4.77
2019-03-11T18:23:03.914Z,4.63
2019-03-11T18:25:36.576Z,5.13
2019-03-11T18:28:06.293Z,4.53
2019-03-11T18:30:36.348Z,3.70
2019-03-11T18:33:06.070Z,4.10
2019-03-11T18:35:35.651Z,3.73
2019-03-11T18:38:05.325Z,4.07
2019-03-11T18:40:35.032Z,4.07
2019-03-11T18:43:04.696Z,4.57
2019-03-11T18:45:34.626Z,5.30
2019-03-11T18:48:04.391Z,5.50
2019-03-11T18:50:34.096Z,5.60
2019-03-11T18:53:03.743Z,4.83
2019-03-11T18:55:33.389Z,4.30
2019-03-11T18:58:03.067Z,4.23
2019-03-11T19:00:32.768Z,3.80
2019-03-11T19:03:02.990Z,3.87
2019-03-11T19:05:32.640Z,3.50
2019-03-11T19:08:02.239Z,3.43
2019-03-11T19:10:31.802Z,4.03
2019-03-11T19:13:01.416Z,5.97
2019-03-11T19:15:31.152Z,5.40
2019-03-11T19:18:00.909Z,6.80
2019-03-11T19:20:30.505Z,7.17
2019-03-11T19:23:00.085Z,6.80
2019-03-11T19:25:29.677Z,7.73
2019-03-11T19:27:59.313Z,7.43
2019-03-11T19:30:28.948Z,7.10
2019-03-11T19:32:58.633Z,6.47
2019-03-11T19:35:28.277Z,6.70
2019-03-11T19:37:57.976Z,20.43
2019-03-11T19:40:27.721Z,12.47
2019-03-11T19:42:57.545Z,7.00
2019-03-11T19:45:27.223Z,6.50
2019-03-11T19:47:56.857Z,8.90
2019-03-11T19:50:26.527Z,9.80
2019-03-11T19:52:59.125Z,12.70
2019-03-11T19:55:27.528Z,11.97
2019-03-11T19:57:57.313Z,11.60
2019-03-11T20:00:27.053Z,14.77
2019-03-11T20:02:57.241Z,12.97
2019-03-11T20:05:26.921Z,12.00
2019-03-11T20:07:56.660Z,11.30
2019-03-11T20:10:26.726Z,37.00
2019-03-11T20:12:56.362Z,31.77
2019-03-11T20:15:26.008Z,20.80
2019-03-11T20:17:55.652Z,15.37
2019-03-11T20:20:25.358Z,10.40
2019-03-11T20:22:55.158Z,7.43
2019-03-11T20:25:26.404Z,7.43
2019-03-11T20:27:56.028Z,7.43
2019-03-11T20:30:25.798Z,7.27
2019-03-11T20:32:55.434Z,7.03
2019-03-11T20:35:25.171Z,6.60
2019-03-11T20:37:54.878Z,7.03
2019-03-11T20:40:24.567Z,7.03
2019-03-11T20:42:54.284Z,6.33
2019-03-11T20:45:23.862Z,5.63
2019-03-11T20:47:53.544Z,5.50
2019-03-11T20:50:23.377Z,5.63
2019-03-11T20:52:53.053Z,5.10
2019-03-11T20:55:22.788Z,5.53
2019-03-11T20:57:52.498Z,5.90
2019-03-11T21:00:22.302Z,5.53
2019-03-11T21:02:51.948Z,5.17
2019-03-11T21:05:24.356Z,5.57
2019-03-11T21:07:53.990Z,4.83
2019-03-11T21:10:23.567Z,4.97
2019-03-11T21:12:53.261Z,4.83
2019-03-11T21:15:22.927Z,5.00
2019-03-11T21:17:52.629Z,5.37
2019-03-11T21:20:22.527Z,5.60
2019-03-11T21:22:52.193Z,5.50
2019-03-11T21:25:21.834Z,5.13
2019-03-11T21:27:52.171Z,4.87
2019-03-11T21:30:21.864Z,5.53
2019-03-11T21:32:51.813Z,5.23
2019-03-11T21:35:21.689Z,4.77
2019-03-11T21:37:51.422Z,4.97
2019-03-11T21:40:21.289Z,4.80
2019-03-11T21:42:51.100Z,5.00
2019-03-11T21:45:32.935Z,4.43
2019-03-11T21:47:52.369Z,4.80
2019-03-11T21:50:22.536Z,5.03
2019-03-11T21:52:52.285Z,4.83
2019-03-11T21:55:22.495Z,5.00
2019-03-11T21:57:52.082Z,5.30
2019-03-11T22:00:32.829Z,4.70
2019-03-11T22:02:54.446Z,4.70
2019-03-11T22:05:24.157Z,4.77
2019-03-11T22:07:53.798Z,4.70
2019-03-11T22:10:23.407Z,4.80
2019-03-11T22:12:53.004Z,4.87
2019-03-11T22:15:22.662Z,4.73
2019-03-11T22:17:52.316Z,4.60
2019-03-11T22:20:22.155Z,4.93
2019-03-11T22:22:51.819Z,4.47
2019-03-11T22:25:21.515Z,4.50
2019-03-11T22:27:51.234Z,4.73
2019-03-11T22:30:23.329Z,4.90
2019-03-11T22:32:52.966Z,4.67
2019-03-11T22:35:22.589Z,4.73
2019-03-11T22:37:52.211Z,4.80
2019-03-11T22:40:22.083Z,5.77
2019-03-11T22:42:51.664Z,5.70
2019-03-11T22:45:21.433Z,4.40
2019-03-11T22:47:51.326Z,5.37
2019-03-11T22:50:21.294Z,4.90
2019-03-11T22:52:51.128Z,7.00
2019-03-11T22:55:21.120Z,6.60
2019-03-11T22:57:50.745Z,7.00
2019-03-11T23:01:00.071Z,7.03
2019-03-11T23:03:29.801Z,6.20
2019-03-11T23:05:59.435Z,6.80
2019-03-11T23:08:29.078Z,6.10
2019-03-11T23:10:58.655Z,6.33
2019-03-11T23:13:28.370Z,6.00
2019-03-11T23:15:58.002Z,6.10
2019-03-11T23:18:27.708Z,6.07
2019-03-11T23:20:57.268Z,5.70
2019-03-11T23:23:26.890Z,6.30
2019-03-11T23:25:56.546Z,6.17
2019-03-11T23:28:26.182Z,6.30
2019-03-11T23:30:55.804Z,6.47
2019-03-11T23:33:25.438Z,5.93
2019-03-11T23:35:55.074Z,5.57
2019-03-11T23:38:24.752Z,6.03
2019-03-11T23:40:54.346Z,6.07
2019-03-11T23:43:24.019Z,5.27
2019-03-11T23:45:53.708Z,5.20
2019-03-11T23:48:23.300Z,5.47
2019-03-11T23:50:52.874Z,4.97
2019-03-11T23:53:22.539Z,5.20
2019-03-11T23:55:52.181Z,4.40
2019-03-11T23:58:21.894Z,5.40
